Time;durP1;ratioP1;P1;durP2;ratioP2;P2;SDS_P1;SDS_P2;PMS_P1;PMS_P2;Temp;Humidity;BMP_temperature;BMP_pressure;BME280_temperature;BME280_humidity;BME280_pressure;Samples;Min_cycle;Max_cycle;Signal;HPM_P1;HPM_P2
2023/10/25 00:00:20;;;;;;;0.00;0.00;;;12.10;72.80;;;;;;5016987;28;20209;-32
2023/10/25 00:02:50;;;;;;;0.00;0.00;;;12.10;72.80;;;;;;5004848;28;20237;-31
2023/10/25 00:05:17;;;;;;;0.00;0.00;;;12.10;72.80;;;;;;5033798;28;20202;-32
2023/10/25 00:07:44;;;;;;;0.00;0.00;;;12.10;72.80;;;;;;5006955;28;20214;-32
2023/10/25 00:10:14;;;;;;;0.00;0.00;;;12.10;72.80;;;;;;5018655;28;20299;-32
2023/10/25 00:12:41;;;;;;;0.00;0.00;;;12.10;72.80;;;;;;4992212;28;20683;-31
2023/10/25 00:15:09;;;;;;;0.00;0.00;;;12.10;72.90;;;;;;5019714;28;20297;-32
2023/10/25 00:17:38;;;;;;;0.00;0.00;;;12.10;72.90;;;;;;5007212;28;20215;-32
2023/10/25 00:20:08;;;;;;;0.00;0.00;;;12.10;72.90;;;;;;5014905;28;20205;-32
2023/10/25 00:22:38;;;;;;;0.00;0.00;;;12.20;73.00;;;;;;5024678;28;20203;-31
2023/10/25 00:25:08;;;;;;;0.00;0.00;;;12.20;73.00;;;;;;5022215;28;20637;-32
2023/10/25 00:27:35;;;;;;;0.00;0.00;;;12.20;73.00;;;;;;5006979;28;20221;-32
2023/10/25 00:30:03;;;;;;;0.00;0.00;;;12.20;73.00;;;;;;5008360;28;20623;-30
2023/10/25 00:32:33;;;;;;;0.00;0.00;;;12.20;73.00;;;;;;5009243;28;20280;-31
2023/10/25 00:35:00;;;;;;;0.00;0.00;;;12.20;73.00;;;;;;5005910;28;20213;-31
2023/10/25 00:37:27;;;;;;;0.00;0.00;;;12.20;73.10;;;;;;5004494;28;20292;-31
2023/10/25 00:39:56;;;;;;;0.00;0.00;;;12.30;73.20;;;;;;5016448;28;20229;-31
2023/10/25 00:42:31;;;;;;;0.00;0.00;;;12.30;73.20;;;;;;5006018;28;20198;-31
2023/10/25 00:44:58;;;;;;;0.00;0.00;;;12.30;73.20;;;;;;5005988;28;20316;-32
2023/10/25 00:47:28;;;;;;;0.00;0.00;;;12.30;73.10;;;;;;5020316;28;20271;-31
2023/10/25 00:50:00;;;;;;;0.00;0.00;;;12.30;73.10;;;;;;5022121;28;20204;-31
2023/10/25 00:52:29;;;;;;;0.00;0.00;;;12.30;73.10;;;;;;5025491;28;20193;-31
2023/10/25 00:55:02;;;;;;;0.00;0.00;;;12.40;73.10;;;;;;5023796;28;20225;-32
2023/10/25 00:57:30;;;;;;;0.00;0.00;;;12.40;73.10;;;;;;5021543;28;20626;-32
2023/10/25 01:00:00;;;;;;;0.00;0.00;;;12.40;73.20;;;;;;5001473;28;20259;-31
2023/10/25 01:02:30;;;;;;;0.00;0.00;;;12.40;73.20;;;;;;5020189;28;20324;-32
2023/10/25 01:05:00;;;;;;;0.00;0.00;;;12.40;73.20;;;;;;5022309;28;20230;-31
2023/10/25 01:07:27;;;;;;;0.00;0.00;;;12.40;73.10;;;;;;5024124;28;20671;-31
2023/10/25 01:09:55;;;;;;;0.00;0.00;;;12.40;73.20;;;;;;5019942;28;20209;-32
2023/10/25 01:12:22;;;;;;;0.00;0.00;;;12.40;73.10;;;;;;4999869;28;20614;-32
2023/10/25 01:14:52;;;;;;;0.00;0.00;;;12.40;73.00;;;;;;5006784;28;20707;-32
2023/10/25 01:17:21;;;;;;;0.00;0.00;;;12.40;73.00;;;;;;5020361;28;20197;-31
2023/10/25 01:19:48;;;;;;;0.00;0.00;;;12.40;73.10;;;;;;5024429;28;20217;-31
2023/10/25 01:22:23;;;;;;;0.00;0.00;;;12.40;73.10;;;;;;5022445;28;20197;-32
2023/10/25 01:24:52;;;;;;;0.00;0.00;;;12.40;73.00;;;;;;5018220;28;20205;-32
2023/10/25 01:27:22;;;;;;;0.00;0.00;;;12.40;73.10;;;;;;5014211;28;20856;-31
2023/10/25 01:29:50;;;;;;;0.00;0.00;;;12.40;73.10;;;;;;5006888;28;20650;-32
2023/10/25 01:32:17;;;;;;;0.00;0.00;;;12.40;73.00;;;;;;5008593;28;20236;-31
2023/10/25 01:34:47;;;;;;;0.00;0.00;;;12.40;73.10;;;;;;5007665;28;20633;-30
2023/10/25 01:37:17;;;;;;;0.00;0.00;;;12.40;73.10;;;;;;5007909;28;20639;-31
2023/10/25 01:39:46;;;;;;;0.00;0.00;;;12.40;73.10;;;;;;5019917;28;20372;-31
2023/10/25 01:42:16;;;;;;;0.00;0.00;;;12.40;73.20;;;;;;5009428;28;20217;-31
2023/10/25 01:44:46;;;;;;;0.00;0.00;;;12.40;73.20;;;;;;5008654;28;20483;-32
2023/10/25 01:47:15;;;;;;;0.00;0.00;;;12.40;73.20;;;;;;4992198;28;20198;-32
2023/10/25 01:49:45;;;;;;;0.00;0.00;;;12.40;73.10;;;;;;5028404;28;20229;-31
2023/10/25 01:52:14;;;;;;;0.00;0.00;;;12.40;73.30;;;;;;4994745;28;20198;-32
2023/10/25 01:54:50;;;;;;;0.00;0.00;;;12.40;73.30;;;;;;5022659;28;20201;-32
2023/10/25 01:57:20;;;;;;;0.00;0.00;;;12.40;73.30;;;;;;5026930;28;20579;-30
2023/10/25 01:59:47;;;;;;;0.00;0.00;;;12.40;73.30;;;;;;5026122;28;20212;-32
2023/10/25 02:02:14;;;;;;;0.00;0.00;;;12.40;73.30;;;;;;5023514;28;20351;-31
2023/10/25 02:04:42;;;;;;;0.00;0.00;;;12.40;73.30;;;;;;5011832;28;20755;-32
2023/10/25 02:07:09;;;;;;;0.00;0.00;;;12.40;73.30;;;;;;5006728;28;20767;-31
2023/10/25 02:09:36;;;;;;;0.00;0.00;;;12.50;73.40;;;;;;5013244;28;20223;-31
2023/10/25 02:12:06;;;;;;;0.00;0.00;;;12.50;73.40;;;;;;5014269;28;20686;-31
2023/10/25 02:14:33;;;;;;;0.00;0.00;;;12.50;73.40;;;;;;5007578;28;20700;-31
2023/10/25 02:17:00;;;;;;;0.00;0.00;;;12.50;73.40;;;;;;5008338;28;20197;-31
2023/10/25 02:19:28;;;;;;;0.00;0.00;;;12.50;73.40;;;;;;5007533;28;20209;-32
2023/10/25 02:21:59;;;;;;;0.00;0.00;;;12.50;73.40;;;;;;5016532;28;20217;-32
2023/10/25 02:24:28;;;;;;;0.00;0.00;;;12.50;73.40;;;;;;5008150;28;20584;-31
2023/10/25 02:27:00;;;;;;;0.00;0.00;;;12.60;73.50;;;;;;5007669;28;20198;-32
2023/10/25 02:29:27;;;;;;;0.00;0.00;;;12.60;73.50;;;;;;5005716;28;20222;-31
2023/10/25 02:31:56;;;;;;;0.00;0.00;;;12.60;73.50;;;;;;5012162;28;20313;-32
2023/10/25 02:34:26;;;;;;;0.00;0.00;;;12.60;73.50;;;;;;5007718;28;20598;-31
2023/10/25 02:36:55;;;;;;;0.00;0.00;;;12.60;73.50;;;;;;5008583;28;20544;-31
2023/10/25 02:39:25;;;;;;;0.00;0.00;;;12.60;73.50;;;;;;5006443;28;20217;-31
2023/10/25 02:41:54;;;;;;;0.00;0.00;;;12.60;73.50;;;;;;5008117;28;20795;-31
2023/10/25 02:44:24;;;;;;;0.00;0.00;;;12.70;73.50;;;;;;5010688;28;20198;-32
2023/10/25 02:46:51;;;;;;;0.00;0.00;;;12.70;73.50;;;;;;5006657;28;20623;-32
2023/10/25 02:49:20;;;;;;;0.00;0.00;;;12.70;73.50;;;;;;5025691;28;20225;-31
2023/10/25 02:51:50;;;;;;;0.00;0.00;;;12.70;73.60;;;;;;5026016;28;20201;-32
2023/10/25 02:54:17;;;;;;;0.00;0.00;;;12.70;73.50;;;;;;5021212;28;20202;-31
2023/10/25 02:56:49;;;;;;;0.00;0.00;;;12.70;73.50;;;;;;4992319;28;20687;-32
2023/10/25 02:59:16;;;;;;;0.00;0.00;;;12.70;73.60;;;;;;5005400;28;20626;-31
2023/10/25 03:01:46;;;;;;;0.00;0.00;;;12.70;73.60;;;;;;5008023;28;20600;-31
2023/10/25 03:04:16;;;;;;;0.00;0.00;;;12.80;74.40;;;;;;5005801;28;20214;-32
2023/10/25 03:06:48;;;;;;;0.00;0.00;;;12.80;73.60;;;;;;5016903;28;20214;-31
2023/10/25 03:09:15;;;;;;;0.00;0.00;;;12.80;73.60;;;;;;5007143;28;20295;-32
2023/10/25 03:11:42;;;;;;;0.00;0.00;;;12.80;73.60;;;;;;4990654;28;20205;-31
2023/10/25 03:14:12;;;;;;;0.00;0.00;;;12.80;73.60;;;;;;5018693;28;20686;-31
2023/10/25 03:16:39;;;;;;;0.00;0.00;;;12.80;73.60;;;;;;5024704;28;20741;-31
2023/10/25 03:19:09;;;;;;;0.00;0.00;;;12.80;73.60;;;;;;5007240;28;20279;-32
2023/10/25 03:21:36;;;;;;;0.00;0.00;;;12.80;73.60;;;;;;5005840;28;20217;-31
2023/10/25 03:24:06;;;;;;;0.00;0.00;;;12.80;73.60;;;;;;5005680;28;20237;-32
2023/10/25 03:26:38;;;;;;;0.00;0.00;;;12.80;73.60;;;;;;5024895;28;20216;-31
2023/10/25 03:29:05;;;;;;;0.00;0.00;;;12.90;73.60;;;;;;5005717;28;20224;-31
2023/10/25 03:31:38;;;;;;;0.00;0.00;;;12.90;73.60;;;;;;5007593;28;20194;-31
2023/10/25 03:34:07;;;;;;;0.00;0.00;;;12.90;73.60;;;;;;5007211;28;20279;-31
2023/10/25 03:36:37;;;;;;;0.00;0.00;;;12.90;73.70;;;;;;5007153;28;20301;-31
2023/10/25 03:39:05;;;;;;;0.00;0.00;;;12.90;73.60;;;;;;5018619;28;20360;-31
2023/10/25 03:41:34;;;;;;;0.00;0.00;;;12.90;73.60;;;;;;5006774;28;20260;-32
2023/10/25 03:44:04;;;;;;;0.00;0.00;;;12.90;73.60;;;;;;5021267;28;20268;-31
2023/10/25 03:46:33;;;;;;;0.03;0.00;;;12.90;73.60;;;;;;5021164;28;20228;-31
2023/10/25 03:49:00;;;;;;;0.00;0.00;;;12.90;73.60;;;;;;5030231;28;20208;-31
2023/10/25 03:51:28;;;;;;;0.00;0.00;;;12.90;73.60;;;;;;5010820;28;20727;-31
2023/10/25 03:53:55;;;;;;;0.00;0.00;;;12.90;73.70;;;;;;5026517;28;20201;-32
2023/10/25 03:56:24;;;;;;;0.00;0.00;;;13.00;73.60;;;;;;5023341;28;20701;-31
2023/10/25 03:58:51;;;;;;;0.00;0.00;;;12.90;73.60;;;;;;5026474;28;20654;-31
2023/10/25 04:01:21;;;;;;;0.00;0.00;;;12.90;73.60;;;;;;5008136;28;20210;-32
2023/10/25 04:03:49;;;;;;;0.00;0.00;;;12.90;73.60;;;;;;5024043;28;20980;-31
2023/10/25 04:06:18;;;;;;;0.00;0.00;;;12.90;73.60;;;;;;5023656;28;20228;-31
2023/10/25 04:08:48;;;;;;;0.00;0.00;;;13.00;73.60;;;;;;5006706;28;20320;-31
2023/10/25 04:11:15;;;;;;;0.00;0.00;;;12.90;73.50;;;;;;5006960;28;20298;-32
2023/10/25 04:13:43;;;;;;;0.00;0.00;;;12.90;73.50;;;;;;5012410;28;20233;-31
2023/10/25 04:16:10;;;;;;;0.00;0.00;;;12.90;73.50;;;;;;5015985;28;20197;-34
2023/10/25 04:18:39;;;;;;;0.00;0.00;;;12.90;73.60;;;;;;5015795;28;20541;-31
2023/10/25 04:21:11;;;;;;;0.00;0.00;;;13.00;73.60;;;;;;5017346;28;20733;-32
2023/10/25 04:23:41;;;;;;;0.00;0.00;;;13.00;73.70;;;;;;5004627;28;20352;-32
2023/10/25 04:26:15;;;;;;;0.00;0.00;;;13.00;73.60;;;;;;5004848;28;20620;-32
2023/10/25 04:28:44;;;;;;;0.00;0.00;;;12.90;73.60;;;;;;5006007;28;20216;-32
2023/10/25 04:31:16;;;;;;;0.00;0.00;;;12.90;73.60;;;;;;5005149;28;20201;-32
2023/10/25 04:33:48;;;;;;;0.00;0.00;;;12.90;73.60;;;;;;5012738;28;20216;-31
2023/10/25 04:36:18;;;;;;;0.00;0.00;;;12.90;73.60;;;;;;5024129;28;20318;-30
2023/10/25 04:38:50;;;;;;;0.00;0.00;;;12.90;73.60;;;;;;5025129;28;20585;-31
2023/10/25 04:41:20;;;;;;;0.00;0.00;;;13.00;73.60;;;;;;5024457;28;20189;-31
2023/10/25 04:43:47;;;;;;;0.00;0.00;;;13.00;73.70;;;;;;5010714;28;20454;-32
2023/10/25 04:46:19;;;;;;;0.00;0.00;;;13.00;73.60;;;;;;5003976;28;20296;-31
2023/10/25 04:48:48;;;;;;;0.00;0.00;;;13.00;73.60;;;;;;5012498;28;20208;-31
2023/10/25 04:51:18;;;;;;;0.00;0.00;;;13.00;73.60;;;;;;5021434;28;20208;-32
2023/10/25 04:53:47;;;;;;;0.00;0.00;;;13.00;73.70;;;;;;5009491;28;20276;-32
2023/10/25 04:56:16;;;;;;;0.00;0.00;;;13.00;73.70;;;;;;5021324;28;20229;-31
2023/10/25 04:58:44;;;;;;;0.00;0.00;;;13.00;73.60;;;;;;5014303;28;20290;-31
2023/10/25 05:01:17;;;;;;;0.00;0.00;;;13.00;73.60;;;;;;5017668;28;20705;-32
2023/10/25 05:03:47;;;;;;;0.00;0.00;;;13.00;73.70;;;;;;5017367;28;20628;-33
2023/10/25 05:06:19;;;;;;;0.00;0.00;;;13.00;73.70;;;;;;5021125;28;20719;-32
2023/10/25 05:08:47;;;;;;;0.00;0.00;;;13.00;73.70;;;;;;5020807;28;20519;-31
2023/10/25 05:11:16;;;;;;;0.00;0.00;;;13.00;73.70;;;;;;5014049;28;20202;-31
2023/10/25 05:13:45;;;;;;;0.00;0.00;;;13.00;73.70;;;;;;5012866;28;20201;-31
2023/10/25 05:16:15;;;;;;;0.00;0.00;;;13.00;73.70;;;;;;5006670;28;20190;-31
2023/10/25 05:18:45;;;;;;;0.00;0.00;;;13.00;73.70;;;;;;5018153;28;20213;-31
2023/10/25 05:21:16;;;;;;;0.00;0.00;;;13.10;73.80;;;;;;5011218;28;20204;-31
2023/10/25 05:23:50;;;;;;;0.00;0.00;;;13.10;73.80;;;;;;5017451;28;20204;-32
2023/10/25 05:26:17;;;;;;;0.00;0.00;;;13.10;73.80;;;;;;5004859;28;20221;-32
2023/10/25 05:28:48;;;;;;;0.00;0.00;;;13.10;73.80;;;;;;5012346;28;20221;-32
2023/10/25 05:31:19;;;;;;;0.00;0.00;;;13.10;73.70;;;;;;5026631;28;20296;-32
2023/10/25 05:33:49;;;;;;;0.00;0.00;;;13.10;73.80;;;;;;5031404;28;20624;-32
2023/10/25 05:36:16;;;;;;;0.00;0.00;;;13.10;73.90;;;;;;5006222;28;20216;-32
2023/10/25 05:38:44;;;;;;;0.00;0.00;;;13.10;73.80;;;;;;5001670;28;20205;-31
2023/10/25 05:41:16;;;;;;;0.00;0.00;;;13.20;73.90;;;;;;5013080;28;20226;-32
2023/10/25 05:43:47;;;;;;;0.00;0.00;;;13.20;73.90;;;;;;5020036;28;20212;-31
2023/10/25 05:46:14;;;;;;;0.00;0.00;;;13.20;73.90;;;;;;5015679;28;20300;-31
2023/10/25 05:48:42;;;;;;;0.00;0.00;;;13.20;73.90;;;;;;5005401;28;20210;-31
2023/10/25 05:51:09;;;;;;;0.00;0.00;;;13.20;73.90;;;;;;5006004;28;20506;-31
2023/10/25 05:53:36;;;;;;;0.00;0.00;;;13.20;73.80;;;;;;5023669;28;20308;-32
2023/10/25 05:56:06;;;;;;;0.00;0.00;;;13.20;73.80;;;;;;5022162;28;20205;-32
2023/10/25 05:58:34;;;;;;;0.00;0.00;;;13.20;73.80;;;;;;5008491;28;20281;-32
2023/10/25 06:01:08;;;;;;;0.00;0.00;;;13.20;73.80;;;;;;5027151;28;20635;-31
2023/10/25 06:03:40;;;;;;;0.00;0.00;;;13.20;73.80;;;;;;5026933;28;20266;-32
2023/10/25 06:06:11;;;;;;;0.00;0.00;;;13.30;73.90;;;;;;5011295;28;20534;-32
2023/10/25 06:08:39;;;;;;;0.00;0.00;;;13.30;73.90;;;;;;5008882;28;20205;-32
2023/10/25 06:11:11;;;;;;;0.00;0.00;;;13.30;73.90;;;;;;5011734;28;20707;-32
2023/10/25 06:13:43;;;;;;;0.00;0.00;;;13.30;73.90;;;;;;5014719;28;20806;-31
2023/10/25 06:16:13;;;;;;;0.00;0.00;;;13.30;73.90;;;;;;5019731;28;20266;-32
2023/10/25 06:18:43;;;;;;;0.00;0.00;;;13.30;73.90;;;;;;5017385;28;20946;-32
2023/10/25 06:21:11;;;;;;;0.00;0.00;;;13.30;73.90;;;;;;5020930;28;20213;-32
2023/10/25 06:23:43;;;;;;;0.00;0.00;;;13.30;73.90;;;;;;5011176;28;20214;-32
2023/10/25 06:26:13;;;;;;;0.00;0.00;;;13.30;73.90;;;;;;5000846;28;20205;-32
2023/10/25 06:28:43;;;;;;;0.00;0.00;;;13.30;73.90;;;;;;5027003;28;20220;-32
2023/10/25 06:31:11;;;;;;;0.00;0.00;;;13.30;73.90;;;;;;5012878;28;20214;-32
2023/10/25 06:33:41;;;;;;;0.00;0.00;;;13.30;73.90;;;;;;5022731;28;20301;-32
2023/10/25 06:36:11;;;;;;;0.00;0.00;;;13.30;73.90;;;;;;5011685;28;20641;-32
2023/10/25 06:38:43;;;;;;;0.00;0.00;;;13.30;73.90;;;;;;5009996;28;20201;-31
2023/10/25 06:41:17;;;;;;;0.00;0.00;;;13.30;73.90;;;;;;5029136;28;20306;-33
2023/10/25 06:43:46;;;;;;;0.00;0.00;;;13.30;74.00;;;;;;5007551;28;20759;-32
2023/10/25 06:46:20;;;;;;;0.00;0.00;;;13.30;74.00;;;;;;5013669;28;20271;-32
2023/10/25 06:48:48;;;;;;;0.00;0.00;;;13.30;74.00;;;;;;5014393;28;20587;-32
2023/10/25 06:51:21;;;;;;;0.00;0.00;;;13.30;74.00;;;;;;5022079;28;20308;-32
2023/10/25 06:53:49;;;;;;;0.00;0.00;;;13.30;74.00;;;;;;5009004;28;20213;-32
2023/10/25 06:56:22;;;;;;;0.00;0.00;;;13.30;74.00;;;;;;5010344;28;20204;-31
2023/10/25 06:58:52;;;;;;;0.00;0.00;;;13.30;74.00;;;;;;5008713;28;20221;-33
2023/10/25 07:01:23;;;;;;;0.00;0.00;;;13.30;74.10;;;;;;5011463;28;20221;-32
2023/10/25 07:03:56;;;;;;;0.00;0.00;;;13.30;74.10;;;;;;5020640;28;20253;-32
2023/10/25 07:06:27;;;;;;;0.00;0.00;;;13.30;74.20;;;;;;5023490;28;20209;-32
2023/10/25 07:08:59;;;;;;;0.00;0.00;;;13.30;74.10;;;;;;5013933;28;20201;-32
2023/10/25 07:11:26;;;;;;;0.00;0.00;;;13.30;74.20;;;;;;5015115;28;20217;-32
2023/10/25 07:13:54;;;;;;;0.00;0.00;;;13.30;74.20;;;;;;5011660;28;20205;-32
2023/10/25 07:16:23;;;;;;;0.00;0.00;;;13.30;74.20;;;;;;5023200;28;20214;-32
2023/10/25 07:18:50;;;;;;;0.00;0.00;;;13.40;74.30;;;;;;5013113;28;20316;-31
2023/10/25 07:21:20;;;;;;;0.00;0.00;;;13.40;75.10;;;;;;5028564;28;20208;-32
2023/10/25 07:23:49;;;;;;;0.00;0.00;;;13.40;74.20;;;;;;5020285;28;20660;-32
2023/10/25 07:26:18;;;;;;;0.00;0.00;;;13.40;74.20;;;;;;5019671;28;20208;-31
2023/10/25 07:28:48;;;;;;;0.00;0.00;;;13.40;74.20;;;;;;5013254;28;20297;-32
2023/10/25 07:31:20;;;;;;;0.00;0.00;;;13.40;74.20;;;;;;5022802;28;20296;-32
2023/10/25 07:33:47;;;;;;;0.00;0.00;;;13.40;74.20;;;;;;5021981;28;20292;-31
2023/10/25 07:36:16;;;;;;;0.00;0.00;;;13.40;74.20;;;;;;5008841;28;20267;-31
2023/10/25 07:38:43;;;;;;;0.00;0.00;;;13.40;74.30;;;;;;5006609;28;20214;-31
2023/10/25 07:41:13;;;;;;;0.00;0.00;;;13.40;74.30;;;;;;5023705;28;20197;-31
2023/10/25 07:43:40;;;;;;;0.00;0.00;;;13.40;74.30;;;;;;5022797;28;20264;-31
2023/10/25 07:46:08;;;;;;;0.00;0.00;;;13.40;74.30;;;;;;5023297;28;20400;-31
2023/10/25 07:48:35;;;;;;;0.00;0.00;;;13.40;74.30;;;;;;5022545;28;20213;-31
2023/10/25 07:51:06;;;;;;;0.00;0.00;;;13.40;74.60;;;;;;5019843;28;20315;-31
2023/10/25 07:53:33;;;;;;;0.00;0.00;;;13.40;74.60;;;;;;5017342;28;20229;-30
2023/10/25 07:56:04;;;;;;;0.00;0.00;;;13.40;74.70;;;;;;5026480;28;20201;-30
2023/10/25 07:58:34;;;;;;;0.00;0.00;;;13.40;74.60;;;;;;5022379;28;20332;-30
2023/10/25 08:01:01;;;;;;;0.00;0.00;;;13.40;74.50;;;;;;4999740;28;20209;-31
2023/10/25 08:03:31;;;;;;;0.00;0.00;;;13.40;74.40;;;;;;5005467;28;20238;-30
2023/10/25 08:05:58;;;;;;;0.00;0.00;;;13.40;74.30;;;;;;5009201;28;20205;-30
2023/10/25 08:08:28;;;;;;;0.00;0.00;;;13.30;74.20;;;;;;5006666;28;20206;-29
2023/10/25 08:11:00;;;;;;;0.00;0.00;;;13.30;74.20;;;;;;5015346;28;20312;-29
2023/10/25 08:13:27;;;;;;;0.00;0.00;;;13.30;74.20;;;;;;5006481;28;20607;-28
2023/10/25 08:16:00;;;;;;;0.00;0.00;;;13.30;74.30;;;;;;5008563;28;20554;-29
2023/10/25 08:18:31;;;;;;;0.00;0.00;;;13.30;74.30;;;;;;5011782;28;20200;-29
2023/10/25 08:21:01;;;;;;;0.00;0.00;;;13.20;74.30;;;;;;5009682;28;20226;-28
2023/10/25 08:23:31;;;;;;;0.00;0.00;;;13.20;74.40;;;;;;5005941;28;20307;-28
2023/10/25 08:26:04;;;;;;;0.00;0.00;;;13.20;74.40;;;;;;5021154;28;20672;-28
2023/10/25 08:28:33;;;;;;;0.00;0.00;;;13.20;74.50;;;;;;5020248;28;20218;-28
2023/10/25 08:31:12;;;;;;;0.00;0.00;;;13.10;74.50;;;;;;5004074;28;20225;-27
2023/10/25 08:33:40;;;;;;;0.00;0.00;;;13.10;74.60;;;;;;5007848;28;20190;-28
2023/10/25 08:36:08;;;;;;;0.00;0.00;;;13.20;74.70;;;;;;5004966;28;20198;-28
2023/10/25 08:38:35;;;;;;;0.10;0.00;;;13.20;74.80;;;;;;5007539;28;20396;-27
2023/10/25 08:41:07;;;;;;;0.00;0.00;;;13.20;74.70;;;;;;5008288;28;20206;-27
2023/10/25 08:43:35;;;;;;;0.00;0.00;;;13.20;74.80;;;;;;5004309;28;20209;-27
2023/10/25 08:46:03;;;;;;;0.00;0.00;;;13.20;74.80;;;;;;5031284;28;20708;-28
2023/10/25 08:48:34;;;;;;;0.00;0.00;;;13.20;74.80;;;;;;5024710;28;20225;-27
2023/10/25 08:51:03;;;;;;;0.00;0.00;;;13.20;74.80;;;;;;5023900;28;20238;-27
2023/10/25 08:53:34;;;;;;;0.00;0.00;;;13.20;74.80;;;;;;5020878;28;20552;-27
2023/10/25 08:56:07;;;;;;;0.00;0.00;;;13.20;75.10;;;;;;5015144;28;20517;-27
2023/10/25 08:58:36;;;;;;;0.00;0.00;;;13.20;74.80;;;;;;5023856;28;20200;-27
2023/10/25 09:01:04;;;;;;;0.00;0.00;;;13.20;74.80;;;;;;5026757;28;20221;-27
2023/10/25 09:03:34;;;;;;;0.00;0.00;;;13.20;74.90;;;;;;5026010;28;20703;-26
2023/10/25 09:06:03;;;;;;;0.00;0.00;;;13.20;75.00;;;;;;5014060;28;20304;-26
2023/10/25 09:08:34;;;;;;;0.00;0.00;;;13.20;75.80;;;;;;5016461;28;20206;-26
2023/10/25 09:11:02;;;;;;;0.00;0.00;;;13.20;75.10;;;;;;5012486;28;20292;-26
2023/10/25 09:13:36;;;;;;;0.00;0.00;;;13.20;75.10;;;;;;5018452;28;20220;-26
2023/10/25 09:16:08;;;;;;;0.00;0.00;;;13.20;75.10;;;;;;5021726;28;20201;-26
2023/10/25 09:18:36;;;;;;;0.00;0.00;;;13.20;75.10;;;;;;5009447;28;20589;-26
2023/10/25 09:21:07;;;;;;;0.00;0.00;;;13.20;75.20;;;;;;5007375;28;20343;-26
2023/10/25 09:23:55;;;;;;;0.00;0.00;;;13.20;75.10;;;;;;5005973;28;20225;-26
2023/10/25 09:26:31;;;;;;;0.00;0.00;;;13.20;75.20;;;;;;5027659;28;20300;-27
2023/10/25 09:29:04;;;;;;;0.00;0.00;;;13.20;75.20;;;;;;5008057;28;20668;-26
2023/10/25 09:31:34;;;;;;;0.00;0.00;;;13.30;75.30;;;;;;5021642;28;20658;-26
2023/10/25 09:34:08;;;;;;;0.00;0.00;;;13.30;75.30;;;;;;5016171;28;20209;-26
2023/10/25 09:36:36;;;;;;;0.00;0.00;;;13.30;75.40;;;;;;5013984;28;20204;-26
2023/10/25 09:39:04;;;;;;;0.00;0.00;;;13.30;75.40;;;;;;5019644;28;20208;-27
2023/10/25 09:41:37;;;;;;;0.00;0.00;;;13.30;75.50;;;;;;5010172;28;20276;-27
2023/10/25 09:44:16;;;;;;;0.00;0.00;;;13.30;75.60;;;;;;5020036;28;20197;-27
2023/10/25 09:46:49;;;;;;;0.00;0.00;;;13.30;75.80;;;;;;5025033;28;20587;-27
2023/10/25 09:49:27;;;;;;;0.00;0.00;;;13.40;75.90;;;;;;5016810;28;20227;-27
2023/10/25 09:52:05;;;;;;;0.00;0.00;;;13.40;76.00;;;;;;5019236;28;20217;-27
2023/10/25 09:54:35;;;;;;;0.00;0.00;;;13.40;76.10;;;;;;5025626;28;21043;-27
2023/10/25 09:57:04;;;;;;;0.00;0.00;;;13.50;76.20;;;;;;5014351;28;20209;-27
2023/10/25 09:59:34;;;;;;;0.00;0.00;;;13.50;76.20;;;;;;5009487;28;20217;-27
2023/10/25 10:02:09;;;;;;;0.00;0.00;;;13.50;76.20;;;;;;5014869;28;20237;-27
2023/10/25 10:04:41;;;;;;;0.00;0.00;;;13.50;76.20;;;;;;5025238;28;20201;-27
2023/10/25 10:07:26;;;;;;;0.00;0.00;;;13.50;76.20;;;;;;5014629;28;20222;-27
2023/10/25 10:10:12;;;;;;;0.00;0.00;;;13.60;76.30;;;;;;5010413;28;20230;-27
2023/10/25 10:12:44;;;;;;;0.00;0.00;;;13.60;76.30;;;;;;5011435;28;20232;-27
2023/10/25 10:15:14;;;;;;;0.00;0.00;;;13.60;76.40;;;;;;5019948;28;20293;-27
2023/10/25 10:17:45;;;;;;;0.00;0.00;;;13.60;76.60;;;;;;4997562;28;20216;-27
2023/10/25 10:20:23;;;;;;;0.00;0.00;;;13.60;76.50;;;;;;5028500;28;20738;-28
2023/10/25 10:23:06;;;;;;;0.00;0.00;;;13.60;77.00;;;;;;5019208;28;20622;-27
2023/10/25 10:25:45;;;;;;;0.00;0.00;;;13.70;77.50;;;;;;5002171;28;20316;-27
2023/10/25 10:28:14;;;;;;;0.00;0.00;;;13.70;76.80;;;;;;5012277;28;20208;-27
2023/10/25 10:30:42;;;;;;;0.00;0.00;;;13.70;76.80;;;;;;5027168;28;20624;-28
2023/10/25 10:33:15;;;;;;;0.00;0.00;;;13.80;76.80;;;;;;5017201;28;20216;-28
2023/10/25 10:35:50;;;;;;;0.00;0.00;;;13.80;76.80;;;;;;5010627;28;20282;-28
2023/10/25 10:38:20;;;;;;;0.00;0.00;;;13.80;76.80;;;;;;5020280;28;20296;-28
2023/10/25 10:40:52;;;;;;;0.00;0.00;;;13.80;76.80;;;;;;4992255;28;20205;-28
2023/10/25 10:43:20;;;;;;;0.00;0.00;;;13.80;76.90;;;;;;5009068;28;20316;-28
2023/10/25 10:45:56;;;;;;;0.00;0.00;;;13.90;76.90;;;;;;5013017;28;20264;-28
2023/10/25 10:48:32;;;;;;;0.00;0.00;;;13.90;77.00;;;;;;4990417;28;20230;-28
2023/10/25 10:51:03;;;;;;;0.00;0.00;;;13.90;76.90;;;;;;5013617;28;20719;-28
2023/10/25 10:53:34;;;;;;;0.00;0.00;;;14.00;76.90;;;;;;5030923;28;20205;-28
2023/10/25 10:56:03;;;;;;;0.00;0.00;;;14.00;77.00;;;;;;5026299;28;20201;-28
2023/10/25 10:58:32;;;;;;;0.00;0.00;;;14.00;77.10;;;;;;5020629;28;20225;-28
2023/10/25 11:00:59;;;;;;;0.00;0.00;;;14.00;77.00;;;;;;5027297;28;20296;-28
2023/10/25 11:03:31;;;;;;;0.00;0.00;;;14.10;77.10;;;;;;5011663;28;20248;-29
2023/10/25 11:06:02;;;;;;;0.00;0.00;;;14.10;77.10;;;;;;5024852;28;20659;-28
2023/10/25 11:08:32;;;;;;;0.00;0.00;;;14.10;77.20;;;;;;5019215;28;20225;-28
2023/10/25 11:11:00;;;;;;;0.00;0.00;;;14.10;77.20;;;;;;5010584;28;20557;-28
2023/10/25 11:13:31;;;;;;;0.00;0.00;;;14.20;77.20;;;;;;5015437;28;20208;-28
2023/10/25 11:16:02;;;;;;;0.00;0.00;;;14.20;77.20;;;;;;5009364;28;20678;-28
2023/10/25 11:18:30;;;;;;;0.00;0.00;;;14.20;77.20;;;;;;5022903;28;20217;-27
2023/10/25 11:21:02;;;;;;;0.00;0.00;;;14.20;77.10;;;;;;5017700;28;20208;-27
2023/10/25 11:23:34;;;;;;;0.00;0.00;;;14.20;77.20;;;;;;5024102;28;20194;-27
2023/10/25 11:26:05;;;;;;;0.00;0.00;;;14.30;77.30;;;;;;5019139;28;20208;-27
2023/10/25 11:28:34;;;;;;;0.00;0.00;;;14.30;77.30;;;;;;5023939;28;21138;-27
2023/10/25 11:31:05;;;;;;;0.00;0.00;;;14.30;77.30;;;;;;5009993;28;20212;-26
2023/10/25 11:33:48;;;;;;;0.00;0.00;;;14.30;77.40;;;;;;5016692;28;20224;-27
2023/10/25 11:36:21;;;;;;;0.00;0.00;;;14.30;77.40;;;;;;5010222;28;20700;-26
2023/10/25 11:38:48;;;;;;;0.00;0.00;;;14.40;77.50;;;;;;5019614;28;20271;-26
2023/10/25 11:41:18;;;;;;;0.00;0.00;;;14.40;77.40;;;;;;5010329;28;20280;-27
2023/10/25 11:43:45;;;;;;;0.00;0.00;;;14.40;77.40;;;;;;5014843;28;20233;-26
2023/10/25 11:46:16;;;;;;;0.00;0.00;;;14.40;77.40;;;;;;5003953;28;20209;-27
2023/10/25 11:48:49;;;;;;;0.00;0.00;;;14.50;77.50;;;;;;5010534;28;20214;-27
2023/10/25 11:51:24;;;;;;;0.00;0.00;;;14.50;77.50;;;;;;5006448;28;20627;-27
2023/10/25 11:53:51;;;;;;;0.00;0.00;;;14.50;77.50;;;;;;5009594;28;20210;-27
2023/10/25 11:56:21;;;;;;;0.00;0.00;;;14.60;77.50;;;;;;5008433;28;20985;-26
2023/10/25 11:58:53;;;;;;;0.00;0.00;;;14.60;77.60;;;;;;5018479;28;20212;-27
2023/10/25 12:01:23;;;;;;;0.00;0.00;;;14.60;77.60;;;;;;5017627;28;20210;-27
2023/10/25 12:03:50;;;;;;;0.00;0.00;;;14.60;77.60;;;;;;5024678;28;20233;-27
2023/10/25 12:06:19;;;;;;;0.00;0.00;;;14.70;77.60;;;;;;5020778;28;20233;-27
2023/10/25 12:08:47;;;;;;;0.00;0.00;;;14.70;77.60;;;;;;5006273;28;20279;-26
2023/10/25 12:11:14;;;;;;;0.00;0.00;;;14.70;77.50;;;;;;4993835;28;20221;-27
2023/10/25 12:13:42;;;;;;;0.00;0.00;;;14.70;77.60;;;;;;5004955;28;20202;-27
2023/10/25 12:16:17;;;;;;;0.00;0.00;;;14.70;77.50;;;;;;5006062;28;20205;-26
2023/10/25 12:18:46;;;;;;;0.00;0.00;;;14.80;77.70;;;;;;5008569;28;20571;-27
2023/10/25 12:21:14;;;;;;;0.00;0.00;;;14.80;77.70;;;;;;5015852;28;20205;-27
2023/10/25 12:23:41;;;;;;;0.00;0.00;;;14.80;77.70;;;;;;5026231;28;20710;-27
2023/10/25 12:26:11;;;;;;;0.00;0.00;;;14.80;77.70;;;;;;5024672;28;20687;-27
2023/10/25 12:28:38;;;;;;;0.00;0.00;;;14.90;77.80;;;;;;5017104;28;20266;-27
2023/10/25 12:31:05;;;;;;;0.00;0.00;;;14.90;77.70;;;;;;5025454;28;20670;-27
2023/10/25 12:33:35;;;;;;;0.00;0.00;;;14.90;77.70;;;;;;5016986;28;20471;-27
2023/10/25 12:36:04;;;;;;;0.00;0.00;;;15.00;77.90;;;;;;5012082;28;20217;-27
2023/10/25 12:38:31;;;;;;;0.00;0.00;;;15.00;77.80;;;;;;5027216;28;20683;-27
2023/10/25 12:40:59;;;;;;;0.00;0.00;;;15.00;77.80;;;;;;5024455;28;20201;-27
2023/10/25 12:43:26;;;;;;;0.00;0.00;;;15.00;77.80;;;;;;5020440;28;20299;-27
2023/10/25 12:45:57;;;;;;;0.00;0.00;;;15.10;77.90;;;;;;5010404;28;20221;-27
2023/10/25 12:48:24;;;;;;;0.00;0.00;;;15.10;77.90;;;;;;5015042;28;20711;-27
2023/10/25 12:50:54;;;;;;;0.00;0.00;;;15.10;77.80;;;;;;5022850;28;20218;-27
2023/10/25 12:53:24;;;;;;;0.00;0.00;;;15.10;77.80;;;;;;5009719;28;20212;-28
2023/10/25 12:55:51;;;;;;;0.00;0.00;;;15.20;78.00;;;;;;5036695;28;20204;-27
2023/10/25 12:58:23;;;;;;;0.00;0.00;;;15.20;77.90;;;;;;5025729;28;20200;-27
2023/10/25 13:00:54;;;;;;;0.00;0.00;;;15.20;77.90;;;;;;5020219;28;20300;-27